createdAt,value
2023-04-09T00:00:46.136Z,1749.00
2023-04-09T00:01:46.153Z,1752.00
2023-04-09T00:02:46.225Z,1745.00
2023-04-09T00:03:46.292Z,1736.00
2023-04-09T00:04:46.310Z,1743.00
2023-04-09T00:05:46.193Z,1744.00
2023-04-09T00:06:46.202Z,1742.00
2023-04-09T00:07:46.219Z,1737.00
2023-04-09T00:08:46.233Z,1736.00
2023-04-09T00:09:46.244Z,1736.00
2023-04-09T00:10:46.250Z,1735.00
2023-04-09T00:11:46.256Z,1731.00
2023-04-09T00:12:46.282Z,1735.00
2023-04-09T00:13:46.298Z,1733.00
2023-04-09T00:14:46.333Z,1729.00
2023-04-09T00:15:46.303Z,1734.00
2023-04-09T00:16:46.396Z,1735.00
2023-04-09T00:17:46.347Z,1732.00
2023-04-09T00:18:46.342Z,1728.00
2023-04-09T00:19:46.333Z,1729.00
2023-04-09T00:20:46.318Z,1730.00
2023-04-09T00:21:46.300Z,1731.00
2023-04-09T00:22:46.287Z,1731.00
2023-04-09T00:23:46.268Z,1727.00
2023-04-09T00:24:46.267Z,1726.00
2023-04-09T00:25:46.244Z,1730.00
2023-04-09T00:26:46.224Z,1724.00
2023-04-09T00:27:46.211Z,1723.00
2023-04-09T00:28:46.214Z,1725.00
2023-04-09T00:29:46.175Z,1719.00
2023-04-09T00:30:46.165Z,1716.00
2023-04-09T00:31:46.165Z,1725.00
2023-04-09T00:32:46.189Z,1717.00
2023-04-09T00:33:46.112Z,1723.00
2023-04-09T00:34:46.117Z,1712.00
2023-04-09T00:35:46.085Z,1724.00
2023-04-09T00:36:46.068Z,1708.00
2023-04-09T00:37:46.064Z,1708.00
2023-04-09T00:38:46.062Z,1706.00
2023-04-09T00:39:46.034Z,1711.00
2023-04-09T00:40:45.999Z,1713.00
2023-04-09T00:41:45.990Z,1708.00
2023-04-09T00:42:45.962Z,1707.00
2023-04-09T00:43:45.942Z,1702.00
2023-04-09T00:44:45.936Z,1698.00
2023-04-09T00:45:45.955Z,1694.00
2023-04-09T00:46:45.898Z,1697.00
2023-04-09T00:47:45.930Z,1698.00
2023-04-09T00:48:45.907Z,1687.00
2023-04-09T00:49:45.912Z,1692.00
2023-04-09T00:50:45.911Z,1691.00
2023-04-09T00:51:45.918Z,1694.00
2023-04-09T00:52:45.936Z,1686.00
2023-04-09T00:53:45.927Z,1690.00
2023-04-09T00:54:45.943Z,1694.00
2023-04-09T00:55:45.955Z,1683.00
2023-04-09T00:56:45.954Z,1680.00
2023-04-09T00:57:45.963Z,1677.00
2023-04-09T00:58:45.978Z,1675.00
2023-04-09T00:59:45.995Z,1671.00
2023-04-09T01:00:46.037Z,1680.00
2023-04-09T01:01:46.016Z,1678.00
2023-04-09T01:02:46.125Z,1679.00
2023-04-09T01:03:46.085Z,1677.00
2023-04-09T01:04:46.043Z,1676.00
2023-04-09T01:05:46.063Z,1672.00
2023-04-09T01:06:46.072Z,1667.00
2023-04-09T01:07:46.075Z,1669.00
2023-04-09T01:08:46.099Z,1664.00
2023-04-09T01:09:46.123Z,1668.00
2023-04-09T01:10:46.117Z,1668.00
2023-04-09T01:11:46.125Z,1669.00
2023-04-09T01:12:46.143Z,1664.00
2023-04-09T01:13:46.151Z,1664.00
2023-04-09T01:14:46.178Z,1659.00
2023-04-09T01:15:46.164Z,1654.00
2023-04-09T01:16:46.197Z,1658.00
2023-04-09T01:17:46.199Z,1663.00
2023-04-09T01:18:46.184Z,1656.00
2023-04-09T01:19:46.197Z,1652.00
2023-04-09T01:20:46.212Z,1661.00
2023-04-09T01:21:46.229Z,1652.00
2023-04-09T01:22:46.232Z,1650.00
2023-04-09T01:23:46.238Z,1650.00
2023-04-09T01:24:46.284Z,1647.00
2023-04-09T01:25:46.335Z,1644.00
2023-04-09T01:26:46.298Z,1641.00
2023-04-09T01:27:46.277Z,1642.00
2023-04-09T01:28:46.291Z,1646.00
2023-04-09T01:29:46.308Z,1634.00
2023-04-09T01:30:46.368Z,1629.00
2023-04-09T01:31:46.325Z,1632.00
2023-04-09T01:32:46.380Z,1633.00
2023-04-09T01:33:46.338Z,1639.00
2023-04-09T01:34:46.354Z,1642.00
2023-04-09T01:35:46.407Z,1630.00
2023-04-09T01:36:46.382Z,1644.00
2023-04-09T01:37:46.382Z,1629.00
2023-04-09T01:38:46.394Z,1629.00
2023-04-09T01:39:46.403Z,1629.00
2023-04-09T01:40:46.422Z,1635.00
2023-04-09T01:41:46.424Z,1629.00
2023-04-09T01:42:46.437Z,1628.00
2023-04-09T01:43:46.440Z,1628.00
2023-04-09T01:44:46.460Z,1621.00
2023-04-09T01:45:46.489Z,1625.00
2023-04-09T01:46:46.482Z,1626.00
2023-04-09T01:47:46.493Z,1622.00
2023-04-09T01:48:46.489Z,1616.00
2023-04-09T01:49:46.517Z,1620.00
2023-04-09T01:50:46.520Z,1621.00
2023-04-09T01:51:46.542Z,1614.00
2023-04-09T01:52:46.530Z,1617.00
2023-04-09T01:53:46.544Z,1613.00
2023-04-09T01:54:46.549Z,1613.00
2023-04-09T01:55:46.560Z,1616.00
2023-04-09T01:56:46.572Z,1614.00
2023-04-09T01:57:46.578Z,1610.00
2023-04-09T01:58:46.589Z,1598.00
2023-04-09T01:59:46.599Z,1610.00
2023-04-09T02:00:46.621Z,1603.00
2023-04-09T02:01:46.784Z,1605.00
2023-04-09T02:02:46.677Z,1598.00
2023-04-09T02:03:46.753Z,1609.00
2023-04-09T02:04:46.666Z,1597.00
2023-04-09T02:05:46.672Z,1598.00
2023-04-09T02:06:46.678Z,1600.00
2023-04-09T02:07:46.687Z,1591.00
2023-04-09T02:08:46.710Z,1593.00
2023-04-09T02:09:46.708Z,1588.00
2023-04-09T02:10:46.730Z,1595.00
2023-04-09T02:11:46.737Z,1589.00
2023-04-09T02:12:46.752Z,1590.00
2023-04-09T02:13:46.759Z,1585.00
2023-04-09T02:14:46.768Z,1583.00
2023-04-09T02:15:46.825Z,1581.00
2023-04-09T02:16:46.779Z,1584.00
2023-04-09T02:17:46.858Z,1576.00
2023-04-09T02:18:46.822Z,1580.00
2023-04-09T02:19:46.811Z,1579.00
2023-04-09T02:20:46.837Z,1582.00
2023-04-09T02:21:46.823Z,1572.00
2023-04-09T02:22:46.839Z,1576.00
2023-04-09T02:23:46.839Z,1573.00
2023-04-09T02:24:46.858Z,1565.00
2023-04-09T02:25:46.878Z,1569.00
2023-04-09T02:26:46.888Z,1568.00
2023-04-09T02:27:46.893Z,1563.00
2023-04-09T02:28:46.897Z,1563.00
2023-04-09T02:29:46.908Z,1563.00
2023-04-09T02:30:46.982Z,1563.00
2023-04-09T02:31:46.936Z,1567.00
2023-04-09T02:32:46.977Z,1567.00
2023-04-09T02:33:46.954Z,1558.00
2023-04-09T02:34:46.967Z,1561.00
2023-04-09T02:35:46.992Z,1563.00
2023-04-09T02:36:46.994Z,1556.00
2023-04-09T02:37:47.007Z,1554.00
2023-04-09T02:38:47.016Z,1552.00
2023-04-09T02:39:47.041Z,1551.00
2023-04-09T02:40:47.057Z,1554.00
2023-04-09T02:41:47.047Z,1551.00
2023-04-09T02:42:47.058Z,1553.00
2023-04-09T02:43:47.073Z,1553.00
2023-04-09T02:44:47.091Z,1549.00
2023-04-09T02:45:47.103Z,1548.00
2023-04-09T02:46:47.197Z,1548.00
2023-04-09T02:47:47.156Z,1546.00
2023-04-09T02:48:47.146Z,1539.00
2023-04-09T02:49:47.163Z,1540.00
2023-04-09T02:50:47.174Z,1537.00
2023-04-09T02:51:47.177Z,1536.00
2023-04-09T02:52:47.216Z,1534.00
2023-04-09T02:53:47.209Z,1531.00
2023-04-09T02:54:47.230Z,1532.00
2023-04-09T02:55:47.251Z,1535.00
2023-04-09T02:56:47.293Z,1391.00
2023-04-09T02:57:47.306Z,1258.00
2023-04-09T02:58:47.320Z,1209.00
2023-04-09T02:59:47.345Z,1177.00
2023-04-09T03:00:47.361Z,1109.00
2023-04-09T03:01:47.458Z,1028.00
2023-04-09T03:02:47.521Z,969.00
2023-04-09T03:03:47.592Z,897.00
2023-04-09T03:04:47.534Z,828.00
2023-04-09T03:05:47.599Z,772.00
2023-04-09T03:06:47.661Z,683.00
2023-04-09T03:07:47.717Z,635.00
2023-04-09T03:08:47.774Z,614.00
2023-04-09T03:09:47.837Z,587.00
2023-04-09T03:10:47.892Z,577.00
2023-04-09T03:11:47.952Z,532.00
2023-04-09T03:12:48.028Z,516.00
2023-04-09T03:13:48.096Z,506.00
2023-04-09T03:14:48.172Z,500.00
2023-04-09T03:15:48.261Z,502.00
2023-04-09T03:16:48.315Z,500.00
2023-04-09T03:17:48.377Z,505.00
2023-04-09T03:18:48.420Z,498.00
2023-04-09T03:19:48.473Z,497.00
2023-04-09T03:20:48.514Z,504.00
2023-04-09T03:21:48.556Z,497.00
2023-04-09T03:22:48.598Z,500.00
2023-04-09T03:23:48.630Z,505.00
2023-04-09T03:24:48.684Z,496.00
2023-04-09T03:25:48.785Z,503.00
2023-04-09T03:26:48.867Z,500.00
2023-04-09T03:27:48.923Z,500.00
2023-04-09T03:28:49.003Z,500.00
2023-04-09T03:29:49.072Z,510.00
2023-04-09T03:30:49.117Z,501.00
2023-04-09T03:31:49.139Z,503.00
2023-04-09T03:32:49.161Z,500.00
2023-04-09T03:33:49.227Z,505.00
2023-04-09T03:34:49.274Z,500.00
2023-04-09T03:35:49.388Z,502.00
2023-04-09T03:36:49.349Z,494.00
2023-04-09T03:37:49.353Z,490.00
2023-04-09T03:38:49.485Z,478.00
2023-04-09T03:39:49.379Z,478.00
2023-04-09T03:40:49.412Z,466.00
2023-04-09T03:41:49.417Z,498.00
2023-04-09T03:42:49.427Z,500.00
2023-04-09T03:43:49.450Z,502.00
2023-04-09T03:44:49.462Z,500.00
2023-04-09T03:45:49.491Z,512.00
2023-04-09T03:46:49.547Z,512.00
2023-04-09T03:47:49.601Z,506.00
2023-04-09T03:48:49.643Z,497.00
2023-04-09T03:49:49.680Z,500.00
2023-04-09T03:50:49.781Z,500.00
2023-04-09T03:51:49.866Z,505.00
2023-04-09T03:52:49.948Z,498.00
2023-04-09T03:53:49.978Z,506.00
2023-04-09T03:54:50.039Z,518.00
2023-04-09T03:55:50.097Z,502.00
2023-04-09T03:56:50.115Z,497.00
2023-04-09T03:57:50.120Z,493.00
2023-04-09T03:58:50.417Z,498.00
2023-04-09T03:59:50.160Z,507.00
2023-04-09T04:00:50.161Z,498.00
2023-04-09T04:01:50.331Z,502.00
2023-04-09T04:02:50.605Z,500.00
2023-04-09T04:03:50.332Z,514.00
2023-04-09T04:04:50.283Z,506.00
2023-04-09T04:05:50.225Z,515.00
2023-04-09T04:06:50.270Z,516.00
2023-04-09T04:07:50.255Z,519.00
2023-04-09T04:08:50.327Z,521.00
2023-04-09T04:09:50.269Z,518.00
2023-04-09T04:10:50.296Z,510.00
2023-04-09T04:11:50.307Z,510.00
2023-04-09T04:12:50.370Z,520.00
2023-04-09T04:13:50.337Z,509.00
2023-04-09T04:14:50.346Z,509.00
2023-04-09T04:15:50.353Z,501.00
2023-04-09T04:16:50.372Z,505.00
2023-04-09T04:17:50.397Z,503.00
2023-04-09T04:18:50.730Z,505.00
2023-04-09T04:19:50.405Z,500.00
2023-04-09T04:20:50.422Z,513.00
2023-04-09T04:21:50.441Z,511.00
2023-04-09T04:22:50.444Z,503.00
2023-04-09T04:23:50.468Z,501.00
2023-04-09T04:24:50.479Z,509.00
2023-04-09T04:25:50.488Z,503.00
2023-04-09T04:26:50.545Z,505.00
2023-04-09T04:27:50.553Z,510.00
2023-04-09T04:28:50.830Z,503.00
2023-04-09T04:29:50.629Z,515.00
2023-04-09T04:30:50.668Z,507.00
2023-04-09T04:31:50.766Z,504.00
2023-04-09T04:32:50.805Z,502.00
2023-04-09T04:33:50.734Z,502.00
2023-04-09T04:34:50.764Z,501.00
2023-04-09T04:35:50.801Z,508.00
2023-04-09T04:36:50.788Z,509.00
2023-04-09T04:37:50.799Z,500.00
2023-04-09T04:38:50.983Z,513.00
2023-04-09T04:39:50.830Z,520.00
2023-04-09T04:40:50.847Z,518.00
2023-04-09T04:41:50.858Z,529.00
2023-04-09T04:42:50.852Z,535.00
2023-04-09T04:43:50.858Z,539.00
2023-04-09T04:44:50.863Z,529.00
2023-04-09T04:45:52.374Z,543.00
2023-04-09T04:46:51.099Z,545.00
2023-04-09T04:47:51.178Z,553.00
2023-04-09T04:48:51.407Z,551.00
2023-04-09T04:49:51.181Z,548.00
2023-04-09T04:50:51.203Z,548.00
2023-04-09T04:51:51.245Z,552.00
2023-04-09T04:52:51.249Z,550.00
2023-04-09T04:53:51.285Z,563.00
2023-04-09T04:54:51.290Z,555.00
2023-04-09T04:55:51.323Z,566.00
2023-04-09T04:56:51.407Z,572.00
2023-04-09T04:57:51.379Z,556.00
2023-04-09T04:58:51.653Z,563.00
2023-04-09T04:59:51.432Z,569.00
2023-04-09T05:00:51.482Z,575.00
2023-04-09T05:01:51.531Z,581.00
2023-04-09T05:02:51.769Z,587.00
2023-04-09T05:03:51.652Z,590.00
2023-04-09T05:04:51.603Z,582.00
2023-04-09T05:05:51.636Z,598.00
2023-04-09T05:06:51.678Z,593.00
2023-04-09T05:07:51.703Z,589.00
2023-04-09T05:08:52.172Z,601.00
2023-04-09T05:09:51.755Z,589.00
2023-04-09T05:10:51.787Z,598.00
2023-04-09T05:11:51.824Z,586.00
2023-04-09T05:12:51.851Z,596.00
2023-04-09T05:13:51.868Z,596.00
2023-04-09T05:14:51.895Z,594.00
2023-04-09T05:15:51.932Z,596.00
2023-04-09T05:16:51.988Z,598.00
2023-04-09T05:17:52.036Z,604.00
2023-04-09T05:18:52.374Z,603.00
2023-04-09T05:19:52.049Z,603.00
2023-04-09T05:20:52.056Z,600.00
2023-04-09T05:21:52.098Z,602.00
2023-04-09T05:22:52.263Z,605.00
2023-04-09T05:23:52.091Z,607.00
2023-04-09T05:24:52.112Z,610.00
2023-04-09T05:25:52.115Z,613.00
2023-04-09T05:26:52.138Z,608.00
2023-04-09T05:27:52.157Z,609.00
2023-04-09T05:28:52.414Z,615.00
2023-04-09T05:29:52.171Z,616.00
2023-04-09T05:30:52.243Z,611.00
2023-04-09T05:31:52.204Z,612.00
2023-04-09T05:32:52.271Z,597.00
2023-04-09T05:33:52.238Z,605.00
2023-04-09T05:34:52.240Z,612.00
2023-04-09T05:35:52.333Z,602.00
2023-04-09T05:36:52.280Z,606.00
2023-04-09T05:37:52.297Z,627.00
2023-04-09T05:38:52.735Z,621.00
2023-04-09T05:39:52.320Z,636.00
2023-04-09T05:40:52.324Z,655.00
2023-04-09T05:41:52.357Z,647.00
2023-04-09T05:42:52.355Z,647.00
2023-04-09T05:43:52.568Z,644.00
2023-04-09T05:44:52.449Z,643.00
2023-04-09T05:45:52.502Z,638.00
2023-04-09T05:46:52.506Z,637.00
2023-04-09T05:47:52.603Z,625.00
2023-04-09T05:48:52.979Z,625.00
2023-04-09T05:49:52.592Z,623.00
2023-04-09T05:50:55.616Z,628.00
2023-04-09T05:51:52.658Z,629.00
2023-04-09T05:52:52.654Z,651.00
2023-04-09T05:53:53.114Z,694.00
2023-04-09T05:54:52.684Z,671.00
2023-04-09T05:55:52.717Z,682.00
2023-04-09T05:56:52.714Z,658.00
2023-04-09T05:57:52.752Z,669.00
2023-04-09T05:58:52.723Z,660.00
2023-04-09T05:59:52.725Z,663.00
2023-04-09T06:00:52.762Z,650.00
2023-04-09T06:01:52.830Z,643.00
2023-04-09T06:02:52.850Z,645.00
2023-04-09T06:03:54.767Z,651.00
2023-04-09T06:04:52.813Z,645.00
2023-04-09T06:05:52.816Z,626.00
2023-04-09T06:06:52.840Z,625.00
2023-04-09T06:07:52.870Z,619.00
2023-04-09T06:08:52.867Z,621.00
2023-04-09T06:09:52.885Z,628.00
2023-04-09T06:10:52.906Z,624.00
2023-04-09T06:11:52.931Z,618.00
2023-04-09T06:12:52.956Z,618.00
2023-04-09T06:13:53.142Z,620.00
2023-04-09T06:14:52.993Z,622.00
2023-04-09T06:15:53.067Z,625.00
2023-04-09T06:16:53.027Z,627.00
2023-04-09T06:17:53.120Z,640.00
2023-04-09T06:18:53.059Z,637.00
2023-04-09T06:19:53.078Z,646.00
2023-04-09T06:20:53.101Z,635.00
2023-04-09T06:21:53.139Z,641.00
2023-04-09T06:22:53.143Z,642.00
2023-04-09T06:23:53.643Z,662.00
2023-04-09T06:24:53.182Z,659.00
2023-04-09T06:25:53.212Z,654.00
2023-04-09T06:26:53.233Z,651.00
2023-04-09T06:27:53.252Z,652.00
2023-04-09T06:28:53.286Z,665.00
2023-04-09T06:29:53.297Z,665.00
2023-04-09T06:30:53.394Z,661.00
2023-04-09T06:31:53.347Z,669.00
2023-04-09T06:32:55.410Z,658.00
2023-04-09T06:33:53.479Z,658.00
2023-04-09T06:34:53.394Z,660.00
2023-04-09T06:35:53.436Z,660.00
2023-04-09T06:36:53.432Z,658.00
2023-04-09T06:37:53.478Z,659.00
2023-04-09T06:38:53.483Z,664.00
2023-04-09T06:40:00.939Z,682.00
2023-04-09T06:40:54.531Z,659.00
2023-04-09T06:41:53.539Z,664.00
2023-04-09T06:42:53.553Z,679.00
2023-04-09T06:43:53.733Z,698.00
2023-04-09T06:44:53.584Z,752.00
2023-04-09T06:45:53.619Z,751.00
2023-04-09T06:46:53.785Z,735.00
2023-04-09T06:47:53.666Z,736.00
2023-04-09T06:48:53.659Z,749.00
2023-04-09T06:49:53.683Z,762.00
2023-04-09T06:50:53.703Z,750.00
2023-04-09T06:51:53.736Z,781.00
2023-04-09T06:52:53.754Z,782.00
2023-04-09T06:53:54.003Z,779.00
2023-04-09T06:54:53.805Z,779.00
2023-04-09T06:55:55.427Z,779.00
2023-04-09T06:56:54.107Z,778.00
2023-04-09T06:57:54.158Z,755.00
2023-04-09T06:58:54.178Z,779.00
2023-04-09T06:59:54.215Z,780.00
2023-04-09T07:00:54.248Z,783.00
2023-04-09T07:01:54.729Z,767.00
2023-04-09T07:02:54.486Z,771.00
2023-04-09T07:03:54.515Z,761.00
2023-04-09T07:04:54.369Z,762.00
2023-04-09T07:05:54.376Z,766.00
2023-04-09T07:06:54.397Z,770.00
2023-04-09T07:07:54.436Z,768.00
2023-04-09T07:08:54.745Z,777.00
2023-04-09T07:09:54.463Z,773.00
2023-04-09T07:10:54.483Z,768.00
2023-04-09T07:11:54.496Z,767.00
2023-04-09T07:12:54.514Z,786.00
2023-04-09T07:13:54.642Z,769.00
2023-04-09T07:14:54.551Z,776.00
2023-04-09T07:15:54.559Z,802.00
2023-04-09T07:16:54.584Z,812.00
2023-04-09T07:17:54.622Z,802.00
2023-04-09T07:18:54.628Z,793.00
2023-04-09T07:19:54.648Z,781.00
2023-04-09T07:20:54.638Z,776.00
2023-04-09T07:21:54.672Z,806.00
2023-04-09T07:22:54.667Z,773.00
2023-04-09T07:23:54.998Z,799.00
2023-04-09T07:24:54.727Z,777.00
2023-04-09T07:25:54.734Z,788.00
2023-04-09T07:26:54.750Z,792.00
2023-04-09T07:27:54.767Z,805.00
2023-04-09T07:28:54.788Z,811.00
2023-04-09T07:29:54.811Z,830.00
2023-04-09T07:30:54.824Z,825.00
2023-04-09T07:31:54.949Z,826.00
2023-04-09T07:32:54.881Z,859.00
2023-04-09T07:33:55.216Z,839.00
2023-04-09T07:34:54.929Z,839.00
2023-04-09T07:35:56.060Z,832.00
2023-04-09T07:36:54.969Z,809.00
2023-04-09T07:37:55.004Z,846.00
2023-04-09T07:38:55.275Z,886.00
2023-04-09T07:39:55.027Z,857.00
2023-04-09T07:40:55.048Z,857.00
2023-04-09T07:41:55.069Z,854.00
2023-04-09T07:42:55.101Z,849.00
2023-04-09T07:43:55.117Z,877.00
2023-04-09T07:44:55.149Z,885.00
2023-04-09T07:45:55.154Z,880.00
2023-04-09T07:46:55.222Z,893.00
2023-04-09T07:47:55.223Z,911.00
2023-04-09T07:48:55.498Z,895.00
2023-04-09T07:49:55.266Z,902.00
2023-04-09T07:50:55.255Z,912.00
2023-04-09T07:51:55.277Z,937.00
2023-04-09T07:52:55.298Z,917.00
2023-04-09T07:53:55.344Z,930.00
2023-04-09T07:54:55.338Z,939.00
2023-04-09T07:55:55.354Z,947.00
2023-04-09T07:56:55.382Z,943.00
2023-04-09T07:57:55.389Z,921.00
2023-04-09T07:58:55.415Z,948.00
2023-04-09T07:59:55.457Z,934.00
2023-04-09T08:00:55.455Z,929.00
2023-04-09T08:01:55.514Z,922.00
2023-04-09T08:02:55.677Z,923.00
2023-04-09T08:03:55.710Z,938.00
2023-04-09T08:04:55.671Z,925.00
2023-04-09T08:05:55.588Z,940.00
2023-04-09T08:06:55.631Z,925.00
2023-04-09T08:07:55.662Z,919.00
2023-04-09T08:08:55.740Z,927.00
2023-04-09T08:09:55.753Z,916.00
2023-04-09T08:10:55.814Z,902.00
2023-04-09T08:11:55.887Z,898.00
2023-04-09T08:12:55.878Z,901.00
2023-04-09T08:13:55.916Z,912.00
2023-04-09T08:14:55.960Z,923.00
2023-04-09T08:15:56.060Z,951.00
2023-04-09T08:16:56.074Z,965.00
2023-04-09T08:17:56.126Z,973.00
2023-04-09T08:18:56.126Z,999.00
2023-04-09T08:19:56.161Z,964.00
2023-04-09T08:20:56.181Z,974.00
2023-04-09T08:21:56.225Z,984.00
2023-04-09T08:22:56.259Z,974.00
2023-04-09T08:23:56.288Z,997.00
2023-04-09T08:24:56.308Z,1007.00
2023-04-09T08:25:56.340Z,974.00
2023-04-09T08:26:56.363Z,991.00
2023-04-09T08:27:56.398Z,989.00
2023-04-09T08:28:56.425Z,997.00
2023-04-09T08:29:56.455Z,1011.00
2023-04-09T08:30:56.497Z,1008.00
2023-04-09T08:31:56.601Z,990.00
2023-04-09T08:32:56.583Z,1003.00
2023-04-09T08:33:56.574Z,1004.00
2023-04-09T08:34:56.563Z,1009.00
2023-04-09T08:35:56.558Z,1011.00
2023-04-09T08:36:56.569Z,1014.00
2023-04-09T08:37:56.579Z,1042.00
2023-04-09T08:38:56.714Z,1064.00
2023-04-09T08:39:56.602Z,1027.00
2023-04-09T08:40:56.617Z,1023.00
2023-04-09T08:41:56.638Z,1027.00
2023-04-09T08:42:56.643Z,1034.00
2023-04-09T08:43:58.833Z,1010.00
2023-04-09T08:44:56.666Z,988.00
2023-04-09T08:45:56.675Z,985.00
2023-04-09T08:46:58.442Z,974.00
2023-04-09T08:47:56.730Z,975.00
2023-04-09T08:48:56.728Z,963.00
2023-04-09T08:49:56.721Z,925.00
2023-04-09T08:50:56.715Z,957.00
2023-04-09T08:51:56.728Z,922.00
2023-04-09T08:52:56.731Z,936.00
2023-04-09T08:53:56.746Z,897.00
2023-04-09T08:54:56.789Z,900.00
2023-04-09T08:55:56.767Z,867.00
2023-04-09T08:56:56.769Z,881.00
2023-04-09T08:57:56.765Z,860.00
2023-04-09T08:58:56.776Z,879.00
2023-04-09T08:59:56.803Z,951.00
2023-04-09T09:00:56.821Z,974.00
2023-04-09T09:01:56.884Z,1087.00
2023-04-09T09:02:56.913Z,1128.00
2023-04-09T09:03:56.875Z,1193.00
2023-04-09T09:04:56.805Z,1291.00
2023-04-09T09:05:56.814Z,1363.00
2023-04-09T09:06:56.916Z,1464.00
2023-04-09T09:07:56.820Z,1543.00
2023-04-09T09:08:56.818Z,1568.00
2023-04-09T09:09:56.826Z,1581.00
2023-04-09T09:10:56.830Z,1610.00
2023-04-09T09:11:56.828Z,1635.00
2023-04-09T09:12:56.828Z,1686.00
2023-04-09T09:13:56.829Z,1700.00
2023-04-09T09:14:56.823Z,1724.00
2023-04-09T09:15:56.828Z,1765.00
2023-04-09T09:16:56.924Z,1784.00
2023-04-09T09:17:56.885Z,1807.00
2023-04-09T09:18:57.058Z,1852.00
2023-04-09T09:19:56.834Z,1869.00
2023-04-09T09:20:56.822Z,1889.00
2023-04-09T09:21:56.810Z,1908.00
2023-04-09T09:22:57.094Z,1962.00
2023-04-09T09:23:56.813Z,1968.00
2023-04-09T09:24:56.813Z,1983.00
2023-04-09T09:25:56.813Z,2005.00
2023-04-09T09:26:56.814Z,2027.00
2023-04-09T09:27:56.817Z,2022.00
2023-04-09T09:28:56.821Z,2046.00
2023-04-09T09:29:56.835Z,2080.00
2023-04-09T09:30:56.863Z,2081.00
2023-04-09T09:31:56.829Z,2088.00
2023-04-09T09:32:56.859Z,2100.00
2023-04-09T09:33:56.858Z,2120.00
2023-04-09T09:34:56.859Z,2162.00
2023-04-09T09:35:56.879Z,2175.00
2023-04-09T09:36:56.841Z,2176.00
2023-04-09T09:37:56.833Z,2182.00
2023-04-09T09:38:56.829Z,2195.00
2023-04-09T09:39:56.831Z,2216.00
2023-04-09T09:40:56.830Z,2248.00
2023-04-09T09:41:56.819Z,2266.00
2023-04-09T09:42:56.824Z,2275.00
2023-04-09T09:43:56.821Z,2286.00
2023-04-09T09:44:56.828Z,2311.00
2023-04-09T09:45:56.826Z,2304.00
2023-04-09T09:46:56.814Z,2311.00
2023-04-09T09:47:56.829Z,2320.00
2023-04-09T09:48:56.801Z,2324.00
2023-04-09T09:49:56.826Z,2335.00
2023-04-09T09:50:56.861Z,2340.00
2023-04-09T09:51:56.919Z,2357.00
2023-04-09T09:52:56.945Z,2356.00
2023-04-09T09:53:57.008Z,2360.00
2023-04-09T09:54:57.030Z,2368.00
2023-04-09T09:55:57.060Z,2375.00
2023-04-09T09:56:57.102Z,2390.00
2023-04-09T09:57:57.136Z,2399.00
2023-04-09T09:58:57.170Z,2396.00
2023-04-09T09:59:57.206Z,2398.00
2023-04-09T10:00:57.242Z,2396.00
2023-04-09T10:01:57.334Z,2411.00
2023-04-09T10:02:57.393Z,2438.00
2023-04-09T10:03:57.342Z,2439.00
2023-04-09T10:04:57.369Z,2444.00
2023-04-09T10:05:57.463Z,2453.00
2023-04-09T10:06:57.430Z,2463.00
2023-04-09T10:07:57.473Z,2464.00
2023-04-09T10:08:57.497Z,2467.00
2023-04-09T10:09:57.548Z,2470.00
2023-04-09T10:10:57.565Z,2470.00
2023-04-09T10:11:57.577Z,2472.00
2023-04-09T10:12:57.597Z,2485.00
2023-04-09T10:13:57.613Z,2485.00
2023-04-09T10:14:57.662Z,2477.00
2023-04-09T10:15:57.743Z,2491.00
2023-04-09T10:16:57.680Z,2492.00
2023-04-09T10:17:57.729Z,2495.00
2023-04-09T10:18:57.720Z,2497.00
2023-04-09T10:19:57.748Z,2500.00
2023-04-09T10:20:57.768Z,2506.00
2023-04-09T10:21:57.788Z,2511.00
2023-04-09T10:22:57.820Z,2508.00
2023-04-09T10:23:57.833Z,2506.00
2023-04-09T10:24:57.883Z,2512.00
2023-04-09T10:25:57.883Z,2513.00
2023-04-09T10:26:57.894Z,2513.00
2023-04-09T10:27:57.922Z,2510.00
2023-04-09T10:28:57.937Z,2510.00
2023-04-09T10:29:57.966Z,2516.00
2023-04-09T10:30:58.013Z,2516.00
2023-04-09T10:31:57.993Z,2528.00
2023-04-09T10:32:58.028Z,2524.00
2023-04-09T10:33:58.034Z,2526.00
2023-04-09T10:34:58.050Z,2527.00
2023-04-09T10:35:58.097Z,2525.00
2023-04-09T10:36:58.088Z,2531.00
2023-04-09T10:37:58.104Z,2529.00
2023-04-09T10:38:58.119Z,2531.00
2023-04-09T10:39:58.141Z,2529.00
2023-04-09T10:40:58.159Z,2533.00
2023-04-09T10:41:58.167Z,2540.00
2023-04-09T10:42:58.178Z,2533.00
2023-04-09T10:43:58.181Z,2534.00
2023-04-09T10:44:58.199Z,2539.00
2023-04-09T10:45:58.215Z,2541.00
2023-04-09T10:46:58.272Z,2547.00
2023-04-09T10:47:58.272Z,2537.00
2023-04-09T10:48:58.247Z,2539.00
2023-04-09T10:49:58.255Z,2542.00
2023-04-09T10:50:58.268Z,2541.00
2023-04-09T10:51:58.277Z,2539.00
2023-04-09T10:52:58.341Z,2546.00
2023-04-09T10:53:58.292Z,2544.00
2023-04-09T10:54:58.289Z,2538.00
2023-04-09T10:55:58.310Z,2545.00
2023-04-09T10:56:58.307Z,2549.00
2023-04-09T10:57:58.304Z,2546.00
2023-04-09T10:58:58.313Z,2547.00
2023-04-09T10:59:58.310Z,2545.00
2023-04-09T11:00:58.331Z,2540.00
2023-04-09T11:01:58.414Z,2549.00
2023-04-09T11:02:58.414Z,2545.00
2023-04-09T11:03:58.320Z,2550.00
2023-04-09T11:04:58.463Z,2543.00
2023-04-09T11:05:58.354Z,2555.00
2023-04-09T11:06:58.337Z,2546.00
2023-04-09T11:07:58.342Z,2547.00
2023-04-09T11:08:58.345Z,2546.00
2023-04-09T11:09:58.345Z,2545.00
2023-04-09T11:10:58.366Z,2551.00
2023-04-09T11:11:58.349Z,2548.00
2023-04-09T11:12:58.348Z,2548.00
2023-04-09T11:13:58.353Z,2542.00
2023-04-09T11:14:58.353Z,2542.00
2023-04-09T11:15:58.391Z,2546.00
2023-04-09T11:16:58.350Z,2549.00
2023-04-09T11:17:58.431Z,2537.00
2023-04-09T11:18:58.363Z,2547.00
2023-04-09T11:19:58.345Z,2542.00
2023-04-09T11:20:58.387Z,2538.00
2023-04-09T11:21:58.347Z,2539.00
2023-04-09T11:22:58.347Z,2533.00
2023-04-09T11:23:58.335Z,2546.00
2023-04-09T11:24:58.334Z,2538.00
2023-04-09T11:25:58.340Z,2537.00
2023-04-09T11:26:58.340Z,2538.00
2023-04-09T11:27:58.325Z,2539.00
2023-04-09T11:28:58.334Z,2538.00
2023-04-09T11:29:58.315Z,2534.00
2023-04-09T11:30:58.310Z,2527.00
2023-04-09T11:31:58.352Z,2529.00
2023-04-09T11:32:58.361Z,2529.00
2023-04-09T11:33:58.281Z,2521.00
2023-04-09T11:34:58.284Z,2535.00
2023-04-09T11:35:58.320Z,2524.00
2023-04-09T11:36:58.273Z,2528.00
2023-04-09T11:37:58.264Z,2531.00
2023-04-09T11:38:58.269Z,2520.00
2023-04-09T11:39:58.269Z,2510.00
2023-04-09T11:40:58.276Z,2516.00
2023-04-09T11:41:58.261Z,2520.00
2023-04-09T11:42:58.263Z,2530.00
2023-04-09T11:43:58.254Z,2523.00
2023-04-09T11:44:58.247Z,2517.00
2023-04-09T11:45:58.239Z,2512.00
2023-04-09T11:46:58.272Z,2520.00
2023-04-09T11:47:58.286Z,2512.00
2023-04-09T11:48:58.219Z,2519.00
2023-04-09T11:49:58.213Z,2515.00
2023-04-09T11:50:58.206Z,2511.00
2023-04-09T11:51:58.171Z,2499.00
2023-04-09T11:52:58.167Z,2498.00
2023-04-09T11:53:58.146Z,2514.00
2023-04-09T11:54:58.147Z,2499.00
2023-04-09T11:55:58.147Z,2503.00
2023-04-09T11:56:58.124Z,2492.00
2023-04-09T11:57:58.125Z,2487.00
2023-04-09T11:58:58.096Z,2493.00
2023-04-09T11:59:58.073Z,2490.00
2023-04-09T12:00:58.080Z,2511.00
2023-04-09T12:01:58.165Z,2490.00
2023-04-09T12:02:58.190Z,2497.00
2023-04-09T12:03:58.176Z,2480.00
2023-04-09T12:04:58.124Z,2494.00
2023-04-09T12:05:58.021Z,2480.00
2023-04-09T12:06:58.033Z,2490.00
2023-04-09T12:07:58.050Z,2483.00
2023-04-09T12:08:58.080Z,2484.00
2023-04-09T12:09:58.114Z,2477.00
2023-04-09T12:10:58.174Z,2478.00
2023-04-09T12:11:58.238Z,2481.00
2023-04-09T12:12:58.276Z,2471.00
2023-04-09T12:13:58.287Z,2465.00
2023-04-09T12:14:58.336Z,2469.00
2023-04-09T12:15:59.201Z,2487.00
2023-04-09T12:16:58.465Z,2472.00